sensor_id;sensor_type;location;lat;lon;timestamp;P1;durP1;ratioP1;P2;durP2;ratioP2
38499;SDS011;24269;51.894;4.622;2022-08-01T00:00:11;9.07;;;5.90;;
38499;SDS011;24269;51.894;4.622;2022-08-01T00:02:37;9.55;;;6.38;;
38499;SDS011;24269;51.894;4.622;2022-08-01T00:05:06;9.38;;;6.82;;
38499;SDS011;24269;51.894;4.622;2022-08-01T00:07:33;10.52;;;5.60;;
38499;SDS011;24269;51.894;4.622;2022-08-01T00:10:03;9.40;;;5.32;;
38499;SDS011;24269;51.894;4.622;2022-08-01T00:12:29;7.47;;;4.90;;
38499;SDS011;24269;51.894;4.622;2022-08-01T00:14:55;8.63;;;5.10;;
38499;SDS011;24269;51.894;4.622;2022-08-01T00:17:20;7.22;;;4.40;;
38499;SDS011;24269;51.894;4.622;2022-08-01T00:19:46;7.15;;;4.35;;
38499;SDS011;24269;51.894;4.622;2022-08-01T00:22:12;7.20;;;4.60;;
38499;SDS011;24269;51.894;4.622;2022-08-01T00:24:37;6.88;;;4.35;;
38499;SDS011;24269;51.894;4.622;2022-08-01T00:27:03;7.47;;;4.57;;
38499;SDS011;24269;51.894;4.622;2022-08-01T00:29:28;8.05;;;4.55;;
38499;SDS011;24269;51.894;4.622;2022-08-01T00:31:54;5.97;;;4.20;;
38499;SDS011;24269;51.894;4.622;2022-08-01T00:34:20;7.10;;;3.85;;
38499;SDS011;24269;51.894;4.622;2022-08-01T00:36:45;7.55;;;4.50;;
38499;SDS011;24269;51.894;4.622;2022-08-01T00:39:11;8.20;;;4.43;;
38499;SDS011;24269;51.894;4.622;2022-08-01T00:41:37;7.40;;;4.63;;
38499;SDS011;24269;51.894;4.622;2022-08-01T00:44:03;8.57;;;4.47;;
38499;SDS011;24269;51.894;4.622;2022-08-01T00:46:30;6.57;;;4.38;;
38499;SDS011;24269;51.894;4.622;2022-08-01T00:48:56;9.10;;;4.13;;
38499;SDS011;24269;51.894;4.622;2022-08-01T00:51:22;8.35;;;4.20;;
38499;SDS011;24269;51.894;4.622;2022-08-01T00:53:49;6.90;;;3.58;;
38499;SDS011;24269;51.894;4.622;2022-08-01T00:56:15;9.77;;;4.18;;
38499;SDS011;24269;51.894;4.622;2022-08-01T00:58:42;8.85;;;4.78;;
38499;SDS011;24269;51.894;4.622;2022-08-01T01:01:08;8.77;;;4.88;;
38499;SDS011;24269;51.894;4.622;2022-08-01T01:03:34;10.77;;;4.80;;
38499;SDS011;24269;51.894;4.622;2022-08-01T01:06:04;9.27;;;5.05;;
38499;SDS011;24269;51.894;4.622;2022-08-01T01:08:49;8.93;;;5.50;;
38499;SDS011;24269;51.894;4.622;2022-08-01T01:11:51;9.43;;;5.30;;
38499;SDS011;24269;51.894;4.622;2022-08-01T01:14:54;10.80;;;5.60;;
38499;SDS011;24269;51.894;4.622;2022-08-01T01:17:27;9.32;;;5.43;;
38499;SDS011;24269;51.894;4.622;2022-08-01T01:19:58;13.00;;;6.10;;
38499;SDS011;24269;51.894;4.622;2022-08-01T01:25:04;11.48;;;6.07;;
38499;SDS011;24269;51.894;4.622;2022-08-01T01:30:32;9.48;;;5.75;;
38499;SDS011;24269;51.894;4.622;2022-08-01T01:33:00;11.27;;;5.40;;
38499;SDS011;24269;51.894;4.622;2022-08-01T01:35:29;12.23;;;5.45;;
38499;SDS011;24269;51.894;4.622;2022-08-01T01:38:04;11.27;;;5.45;;
38499;SDS011;24269;51.894;4.622;2022-08-01T01:40:33;10.35;;;5.20;;
38499;SDS011;24269;51.894;4.622;2022-08-01T01:43:00;11.43;;;5.85;;
38499;SDS011;24269;51.894;4.622;2022-08-01T01:45:26;11.98;;;6.15;;
38499;SDS011;24269;51.894;4.622;2022-08-01T01:47:53;12.32;;;5.75;;
38499;SDS011;24269;51.894;4.622;2022-08-01T01:50:20;10.73;;;5.72;;
38499;SDS011;24269;51.894;4.622;2022-08-01T01:52:48;11.70;;;5.85;;
38499;SDS011;24269;51.894;4.622;2022-08-01T01:55:15;12.60;;;5.50;;
38499;SDS011;24269;51.894;4.622;2022-08-01T01:57:42;9.57;;;5.45;;
38499;SDS011;24269;51.894;4.622;2022-08-01T02:00:10;9.32;;;4.78;;
38499;SDS011;24269;51.894;4.622;2022-08-01T02:02:37;11.82;;;4.90;;
38499;SDS011;24269;51.894;4.622;2022-08-01T02:05:04;12.02;;;4.93;;
38499;SDS011;24269;51.894;4.622;2022-08-01T02:07:31;10.48;;;4.70;;
38499;SDS011;24269;51.894;4.622;2022-08-01T02:09:58;11.60;;;4.05;;
38499;SDS011;24269;51.894;4.622;2022-08-01T02:12:26;6.22;;;3.47;;
38499;SDS011;24269;51.894;4.622;2022-08-01T02:14:54;6.78;;;3.13;;
38499;SDS011;24269;51.894;4.622;2022-08-01T02:17:21;5.57;;;2.92;;
38499;SDS011;24269;51.894;4.622;2022-08-01T02:19:49;5.90;;;2.78;;
38499;SDS011;24269;51.894;4.622;2022-08-01T02:22:19;5.65;;;2.97;;
38499;SDS011;24269;51.894;4.622;2022-08-01T02:27:36;5.68;;;2.97;;
38499;SDS011;24269;51.894;4.622;2022-08-01T02:30:12;6.68;;;2.75;;
38499;SDS011;24269;51.894;4.622;2022-08-01T02:32:44;6.45;;;3.20;;
38499;SDS011;24269;51.894;4.622;2022-08-01T02:35:19;6.72;;;2.97;;
38499;SDS011;24269;51.894;4.622;2022-08-01T02:37:51;6.65;;;2.92;;
38499;SDS011;24269;51.894;4.622;2022-08-01T02:40:18;6.13;;;2.92;;
38499;SDS011;24269;51.894;4.622;2022-08-01T02:42:45;4.63;;;2.83;;
38499;SDS011;24269;51.894;4.622;2022-08-01T02:45:17;5.75;;;2.80;;
38499;SDS011;24269;51.894;4.622;2022-08-01T02:47:45;8.30;;;3.50;;
38499;SDS011;24269;51.894;4.622;2022-08-01T02:50:13;8.50;;;3.58;;
38499;SDS011;24269;51.894;4.622;2022-08-01T02:52:41;6.35;;;3.30;;
38499;SDS011;24269;51.894;4.622;2022-08-01T02:55:10;6.30;;;3.50;;
38499;SDS011;24269;51.894;4.622;2022-08-01T02:57:38;8.80;;;3.50;;
38499;SDS011;24269;51.894;4.622;2022-08-01T03:00:05;7.10;;;3.45;;
38499;SDS011;24269;51.894;4.622;2022-08-01T03:02:32;7.20;;;3.53;;
38499;SDS011;24269;51.894;4.622;2022-08-01T03:04:58;7.28;;;3.25;;
38499;SDS011;24269;51.894;4.622;2022-08-01T03:07:27;5.97;;;3.00;;
38499;SDS011;24269;51.894;4.622;2022-08-01T03:09:55;8.82;;;3.38;;
38499;SDS011;24269;51.894;4.622;2022-08-01T03:12:23;7.45;;;3.60;;
38499;SDS011;24269;51.894;4.622;2022-08-01T03:14:51;5.78;;;3.70;;
38499;SDS011;24269;51.894;4.622;2022-08-01T03:17:20;6.68;;;3.70;;
38499;SDS011;24269;51.894;4.622;2022-08-01T03:19:47;7.05;;;3.75;;
38499;SDS011;24269;51.894;4.622;2022-08-01T03:22:14;6.90;;;3.70;;
38499;SDS011;24269;51.894;4.622;2022-08-01T03:24:41;7.90;;;4.05;;
38499;SDS011;24269;51.894;4.622;2022-08-01T03:27:09;8.38;;;4.00;;
38499;SDS011;24269;51.894;4.622;2022-08-01T03:29:35;6.65;;;4.22;;
38499;SDS011;24269;51.894;4.622;2022-08-01T03:32:02;7.18;;;4.10;;
38499;SDS011;24269;51.894;4.622;2022-08-01T03:34:28;9.95;;;4.35;;
38499;SDS011;24269;51.894;4.622;2022-08-01T03:39:28;8.77;;;4.53;;
38499;SDS011;24269;51.894;4.622;2022-08-01T03:41:59;8.25;;;5.03;;
38499;SDS011;24269;51.894;4.622;2022-08-01T03:44:31;8.38;;;4.15;;
38499;SDS011;24269;51.894;4.622;2022-08-01T03:47:04;8.00;;;4.03;;
38499;SDS011;24269;51.894;4.622;2022-08-01T03:49:33;6.70;;;3.75;;
38499;SDS011;24269;51.894;4.622;2022-08-01T03:52:02;7.38;;;4.03;;
38499;SDS011;24269;51.894;4.622;2022-08-01T03:54:32;6.07;;;3.90;;
38499;SDS011;24269;51.894;4.622;2022-08-01T03:57:00;7.65;;;3.20;;
38499;SDS011;24269;51.894;4.622;2022-08-01T03:59:27;4.53;;;2.90;;
38499;SDS011;24269;51.894;4.622;2022-08-01T04:01:54;6.13;;;2.85;;
38499;SDS011;24269;51.894;4.622;2022-08-01T04:04:20;5.40;;;2.90;;
38499;SDS011;24269;51.894;4.622;2022-08-01T04:06:47;4.68;;;2.30;;
38499;SDS011;24269;51.894;4.622;2022-08-01T04:09:16;4.57;;;2.25;;
38499;SDS011;24269;51.894;4.622;2022-08-01T04:11:42;4.80;;;2.30;;
38499;SDS011;24269;51.894;4.622;2022-08-01T04:14:07;2.42;;;1.73;;
38499;SDS011;24269;51.894;4.622;2022-08-01T04:16:33;3.83;;;1.88;;
38499;SDS011;24269;51.894;4.622;2022-08-01T04:18:59;4.70;;;2.10;;
38499;SDS011;24269;51.894;4.622;2022-08-01T04:21:26;4.95;;;1.80;;
38499;SDS011;24269;51.894;4.622;2022-08-01T04:23:53;3.80;;;2.03;;
38499;SDS011;24269;51.894;4.622;2022-08-01T04:26:49;3.78;;;1.85;;
38499;SDS011;24269;51.894;4.622;2022-08-01T04:29:16;3.40;;;1.80;;
38499;SDS011;24269;51.894;4.622;2022-08-01T04:31:45;3.75;;;1.50;;
38499;SDS011;24269;51.894;4.622;2022-08-01T04:34:14;4.13;;;1.52;;
38499;SDS011;24269;51.894;4.622;2022-08-01T04:36:42;3.67;;;1.52;;
38499;SDS011;24269;51.894;4.622;2022-08-01T04:39:09;3.92;;;1.50;;
38499;SDS011;24269;51.894;4.622;2022-08-01T04:41:36;3.35;;;1.20;;
38499;SDS011;24269;51.894;4.622;2022-08-01T04:44:02;3.50;;;1.35;;
38499;SDS011;24269;51.894;4.622;2022-08-01T04:46:29;3.85;;;1.20;;
38499;SDS011;24269;51.894;4.622;2022-08-01T04:48:55;5.20;;;1.58;;
38499;SDS011;24269;51.894;4.622;2022-08-01T04:51:21;4.10;;;1.60;;
38499;SDS011;24269;51.894;4.622;2022-08-01T04:53:47;3.80;;;1.75;;
38499;SDS011;24269;51.894;4.622;2022-08-01T04:56:15;4.53;;;1.58;;
38499;SDS011;24269;51.894;4.622;2022-08-01T04:58:41;4.72;;;1.98;;
38499;SDS011;24269;51.894;4.622;2022-08-01T05:01:08;3.85;;;1.40;;
38499;SDS011;24269;51.894;4.622;2022-08-01T05:03:34;3.45;;;1.60;;
38499;SDS011;24269;51.894;4.622;2022-08-01T05:06:00;3.42;;;1.50;;
38499;SDS011;24269;51.894;4.622;2022-08-01T05:08:29;3.75;;;1.63;;
38499;SDS011;24269;51.894;4.622;2022-08-01T05:10:55;2.88;;;1.60;;
38499;SDS011;24269;51.894;4.622;2022-08-01T05:13:21;4.95;;;1.70;;
38499;SDS011;24269;51.894;4.622;2022-08-01T05:15:46;4.13;;;1.83;;
38499;SDS011;24269;51.894;4.622;2022-08-01T05:18:12;3.75;;;1.95;;
38499;SDS011;24269;51.894;4.622;2022-08-01T05:20:38;3.88;;;1.90;;
38499;SDS011;24269;51.894;4.622;2022-08-01T05:23:06;6.25;;;1.95;;
38499;SDS011;24269;51.894;4.622;2022-08-01T05:25:32;4.25;;;2.05;;
38499;SDS011;24269;51.894;4.622;2022-08-01T05:27:58;4.70;;;2.03;;
38499;SDS011;24269;51.894;4.622;2022-08-01T05:30:24;5.18;;;1.88;;
38499;SDS011;24269;51.894;4.622;2022-08-01T05:32:49;6.28;;;2.30;;
38499;SDS011;24269;51.894;4.622;2022-08-01T05:35:15;5.95;;;2.33;;
38499;SDS011;24269;51.894;4.622;2022-08-01T05:37:40;3.83;;;2.10;;
38499;SDS011;24269;51.894;4.622;2022-08-01T05:40:06;4.32;;;1.92;;
38499;SDS011;24269;51.894;4.622;2022-08-01T05:42:32;4.18;;;1.95;;
38499;SDS011;24269;51.894;4.622;2022-08-01T05:44:58;5.20;;;2.42;;
38499;SDS011;24269;51.894;4.622;2022-08-01T05:47:23;4.80;;;2.22;;
38499;SDS011;24269;51.894;4.622;2022-08-01T05:49:49;5.60;;;2.28;;
38499;SDS011;24269;51.894;4.622;2022-08-01T05:52:15;5.03;;;2.40;;
38499;SDS011;24269;51.894;4.622;2022-08-01T05:54:40;6.32;;;2.38;;
38499;SDS011;24269;51.894;4.622;2022-08-01T05:57:06;6.93;;;2.20;;
38499;SDS011;24269;51.894;4.622;2022-08-01T05:59:31;4.60;;;1.90;;
38499;SDS011;24269;51.894;4.622;2022-08-01T06:01:57;3.85;;;2.00;;
38499;SDS011;24269;51.894;4.622;2022-08-01T06:04:23;6.55;;;2.00;;
38499;SDS011;24269;51.894;4.622;2022-08-01T06:06:48;4.00;;;1.80;;
38499;SDS011;24269;51.894;4.622;2022-08-01T06:09:14;4.78;;;1.80;;
38499;SDS011;24269;51.894;4.622;2022-08-01T06:11:40;2.90;;;1.75;;
38499;SDS011;24269;51.894;4.622;2022-08-01T06:14:06;4.13;;;1.40;;
38499;SDS011;24269;51.894;4.622;2022-08-01T06:16:31;3.28;;;1.50;;
38499;SDS011;24269;51.894;4.622;2022-08-01T06:18:57;3.63;;;1.50;;
38499;SDS011;24269;51.894;4.622;2022-08-01T06:21:23;2.75;;;1.40;;
38499;SDS011;24269;51.894;4.622;2022-08-01T06:23:49;3.00;;;1.70;;
38499;SDS011;24269;51.894;4.622;2022-08-01T06:26:17;4.60;;;1.90;;
38499;SDS011;24269;51.894;4.622;2022-08-01T06:28:43;3.08;;;1.25;;
38499;SDS011;24269;51.894;4.622;2022-08-01T06:31:08;4.65;;;1.63;;
38499;SDS011;24269;51.894;4.622;2022-08-01T06:33:36;4.22;;;1.90;;
38499;SDS011;24269;51.894;4.622;2022-08-01T06:36:02;5.00;;;1.70;;
38499;SDS011;24269;51.894;4.622;2022-08-01T06:38:27;3.90;;;1.90;;
38499;SDS011;24269;51.894;4.622;2022-08-01T06:40:53;4.38;;;1.92;;
38499;SDS011;24269;51.894;4.622;2022-08-01T06:43:19;2.85;;;1.52;;
38499;SDS011;24269;51.894;4.622;2022-08-01T06:45:44;3.97;;;1.70;;
38499;SDS011;24269;51.894;4.622;2022-08-01T06:48:10;2.70;;;1.50;;
38499;SDS011;24269;51.894;4.622;2022-08-01T06:50:36;3.00;;;1.70;;
38499;SDS011;24269;51.894;4.622;2022-08-01T06:53:02;3.72;;;1.60;;
38499;SDS011;24269;51.894;4.622;2022-08-01T06:55:27;5.45;;;1.70;;
38499;SDS011;24269;51.894;4.622;2022-08-01T06:57:53;3.53;;;2.03;;
38499;SDS011;24269;51.894;4.622;2022-08-01T07:00:20;6.68;;;2.33;;
38499;SDS011;24269;51.894;4.622;2022-08-01T07:02:48;5.03;;;2.33;;
38499;SDS011;24269;51.894;4.622;2022-08-01T07:05:14;5.93;;;2.60;;
38499;SDS011;24269;51.894;4.622;2022-08-01T07:07:40;5.78;;;3.00;;
38499;SDS011;24269;51.894;4.622;2022-08-01T07:10:05;6.15;;;2.90;;
38499;SDS011;24269;51.894;4.622;2022-08-01T07:12:33;6.13;;;3.15;;
38499;SDS011;24269;51.894;4.622;2022-08-01T07:15:01;7.68;;;3.80;;
38499;SDS011;24269;51.894;4.622;2022-08-01T07:17:28;10.13;;;4.38;;
38499;SDS011;24269;51.894;4.622;2022-08-01T07:19:54;11.98;;;4.53;;
38499;SDS011;24269;51.894;4.622;2022-08-01T07:22:19;8.50;;;4.30;;
38499;SDS011;24269;51.894;4.622;2022-08-01T07:24:45;9.23;;;4.97;;
38499;SDS011;24269;51.894;4.622;2022-08-01T07:27:11;8.63;;;5.72;;
38499;SDS011;24269;51.894;4.622;2022-08-01T07:29:37;9.93;;;6.20;;
38499;SDS011;24269;51.894;4.622;2022-08-01T07:32:02;12.23;;;7.80;;
38499;SDS011;24269;51.894;4.622;2022-08-01T07:34:28;11.90;;;7.18;;
38499;SDS011;24269;51.894;4.622;2022-08-01T07:36:54;11.32;;;7.97;;
38499;SDS011;24269;51.894;4.622;2022-08-01T07:39:20;13.98;;;7.72;;
38499;SDS011;24269;51.894;4.622;2022-08-01T07:41:45;12.07;;;7.70;;
38499;SDS011;24269;51.894;4.622;2022-08-01T07:44:11;14.50;;;8.38;;
38499;SDS011;24269;51.894;4.622;2022-08-01T07:46:37;16.63;;;8.98;;
38499;SDS011;24269;51.894;4.622;2022-08-01T07:49:02;21.05;;;10.98;;
38499;SDS011;24269;51.894;4.622;2022-08-01T07:51:28;19.35;;;11.10;;
38499;SDS011;24269;51.894;4.622;2022-08-01T07:53:53;20.50;;;11.02;;
38499;SDS011;24269;51.894;4.622;2022-08-01T07:56:19;19.13;;;11.52;;
38499;SDS011;24269;51.894;4.622;2022-08-01T07:58:45;20.45;;;11.68;;
38499;SDS011;24269;51.894;4.622;2022-08-01T08:01:11;20.05;;;11.60;;
38499;SDS011;24269;51.894;4.622;2022-08-01T08:03:37;18.63;;;11.38;;
38499;SDS011;24269;51.894;4.622;2022-08-01T08:06:02;22.75;;;12.27;;
38499;SDS011;24269;51.894;4.622;2022-08-01T08:08:28;21.92;;;11.90;;
38499;SDS011;24269;51.894;4.622;2022-08-01T08:10:54;23.15;;;11.88;;
38499;SDS011;24269;51.894;4.622;2022-08-01T08:13:19;27.15;;;12.00;;
38499;SDS011;24269;51.894;4.622;2022-08-01T08:15:45;24.35;;;10.40;;
38499;SDS011;24269;51.894;4.622;2022-08-01T08:18:11;26.17;;;10.55;;
38499;SDS011;24269;51.894;4.622;2022-08-01T08:20:36;27.13;;;10.55;;
38499;SDS011;24269;51.894;4.622;2022-08-01T08:23:02;21.40;;;8.70;;
38499;SDS011;24269;51.894;4.622;2022-08-01T08:25:48;28.25;;;9.40;;
38499;SDS011;24269;51.894;4.622;2022-08-01T08:28:14;25.33;;;8.52;;
38499;SDS011;24269;51.894;4.622;2022-08-01T08:30:39;25.77;;;7.95;;
38499;SDS011;24269;51.894;4.622;2022-08-01T08:33:06;20.00;;;7.50;;
38499;SDS011;24269;51.894;4.622;2022-08-01T08:35:32;21.58;;;6.60;;
38499;SDS011;24269;51.894;4.622;2022-08-01T08:37:58;19.08;;;6.03;;
38499;SDS011;24269;51.894;4.622;2022-08-01T08:40:24;17.83;;;4.60;;
38499;SDS011;24269;51.894;4.622;2022-08-01T08:42:56;19.20;;;4.30;;
38499;SDS011;24269;51.894;4.622;2022-08-01T08:45:24;16.65;;;4.10;;
38499;SDS011;24269;51.894;4.622;2022-08-01T08:47:52;15.65;;;4.45;;
38499;SDS011;24269;51.894;4.622;2022-08-01T08:50:20;14.20;;;3.58;;
38499;SDS011;24269;51.894;4.622;2022-08-01T08:52:46;14.32;;;4.00;;
38499;SDS011;24269;51.894;4.622;2022-08-01T08:55:13;17.77;;;4.18;;
38499;SDS011;24269;51.894;4.622;2022-08-01T08:57:41;16.08;;;4.35;;
38499;SDS011;24269;51.894;4.622;2022-08-01T09:00:10;21.48;;;3.65;;
38499;SDS011;24269;51.894;4.622;2022-08-01T09:02:41;14.70;;;4.05;;
38499;SDS011;24269;51.894;4.622;2022-08-01T09:05:08;15.30;;;3.97;;
38499;SDS011;24269;51.894;4.622;2022-08-01T09:07:34;12.80;;;3.08;;
38499;SDS011;24269;51.894;4.622;2022-08-01T09:10:01;12.40;;;3.30;;
38499;SDS011;24269;51.894;4.622;2022-08-01T09:12:26;14.82;;;3.33;;
38499;SDS011;24269;51.894;4.622;2022-08-01T09:14:52;12.63;;;3.20;;
38499;SDS011;24269;51.894;4.622;2022-08-01T09:17:19;9.27;;;2.45;;
38499;SDS011;24269;51.894;4.622;2022-08-01T09:19:50;11.57;;;2.63;;
38499;SDS011;24269;51.894;4.622;2022-08-01T09:22:21;14.82;;;3.05;;
38499;SDS011;24269;51.894;4.622;2022-08-01T09:27:29;9.57;;;2.10;;
38499;SDS011;24269;51.894;4.622;2022-08-01T09:30:07;12.32;;;2.58;;
38499;SDS011;24269;51.894;4.622;2022-08-01T09:32:33;9.40;;;1.92;;
38499;SDS011;24269;51.894;4.622;2022-08-01T09:35:03;8.85;;;2.30;;
38499;SDS011;24269;51.894;4.622;2022-08-01T09:37:57;9.57;;;2.50;;
38499;SDS011;24269;51.894;4.622;2022-08-01T09:43:18;10.10;;;2.50;;
38499;SDS011;24269;51.894;4.622;2022-08-01T09:45:44;6.88;;;2.20;;
38499;SDS011;24269;51.894;4.622;2022-08-01T09:48:10;9.07;;;2.42;;
38499;SDS011;24269;51.894;4.622;2022-08-01T09:50:44;7.85;;;2.10;;
38499;SDS011;24269;51.894;4.622;2022-08-01T09:53:12;9.93;;;2.33;;
38499;SDS011;24269;51.894;4.622;2022-08-01T09:55:42;8.70;;;1.98;;
38499;SDS011;24269;51.894;4.622;2022-08-01T09:58:09;7.75;;;1.55;;
38499;SDS011;24269;51.894;4.622;2022-08-01T10:03:34;8.80;;;2.08;;
38499;SDS011;24269;51.894;4.622;2022-08-01T10:06:00;8.15;;;2.15;;
38499;SDS011;24269;51.894;4.622;2022-08-01T10:08:46;5.82;;;1.85;;
38499;SDS011;24269;51.894;4.622;2022-08-01T10:11:13;6.72;;;1.80;;
38499;SDS011;24269;51.894;4.622;2022-08-01T10:13:39;10.02;;;1.80;;
38499;SDS011;24269;51.894;4.622;2022-08-01T10:16:05;10.93;;;2.00;;
38499;SDS011;24269;51.894;4.622;2022-08-01T10:18:33;8.90;;;1.92;;
38499;SDS011;24269;51.894;4.622;2022-08-01T10:21:01;9.93;;;2.10;;
38499;SDS011;24269;51.894;4.622;2022-08-01T10:23:29;8.10;;;1.90;;
38499;SDS011;24269;51.894;4.622;2022-08-01T10:25:58;7.03;;;1.58;;
38499;SDS011;24269;51.894;4.622;2022-08-01T10:28:26;9.38;;;1.67;;
38499;SDS011;24269;51.894;4.622;2022-08-01T10:30:54;9.25;;;1.70;;
38499;SDS011;24269;51.894;4.622;2022-08-01T10:33:23;7.70;;;1.80;;
38499;SDS011;24269;51.894;4.622;2022-08-01T10:35:52;10.88;;;1.90;;
38499;SDS011;24269;51.894;4.622;2022-08-01T10:38:18;7.57;;;1.80;;
38499;SDS011;24269;51.894;4.622;2022-08-01T10:40:43;9.18;;;1.98;;
38499;SDS011;24269;51.894;4.622;2022-08-01T10:43:11;6.97;;;1.67;;
38499;SDS011;24269;51.894;4.622;2022-08-01T10:45:41;5.65;;;1.60;;
38499;SDS011;24269;51.894;4.622;2022-08-01T10:48:12;7.72;;;1.60;;
38499;SDS011;24269;51.894;4.622;2022-08-01T10:50:44;6.63;;;2.03;;
38499;SDS011;24269;51.894;4.622;2022-08-01T10:53:16;5.60;;;1.90;;
38499;SDS011;24269;51.894;4.622;2022-08-01T10:55:50;7.65;;;1.98;;
38499;SDS011;24269;51.894;4.622;2022-08-01T10:58:25;7.15;;;2.10;;
38499;SDS011;24269;51.894;4.622;2022-08-01T11:03:55;8.02;;;1.65;;
38499;SDS011;24269;51.894;4.622;2022-08-01T11:09:04;7.80;;;2.05;;
38499;SDS011;24269;51.894;4.622;2022-08-01T11:17:42;7.40;;;1.80;;
38499;SDS011;24269;51.894;4.622;2022-08-01T11:20:16;6.95;;;1.85;;
38499;SDS011;24269;51.894;4.622;2022-08-01T11:30:39;9.48;;;2.28;;
38499;SDS011;24269;51.894;4.622;2022-08-01T11:33:05;9.35;;;2.63;;
38499;SDS011;24269;51.894;4.622;2022-08-01T11:35:31;12.07;;;2.50;;
38499;SDS011;24269;51.894;4.622;2022-08-01T11:37:57;9.70;;;1.95;;
38499;SDS011;24269;51.894;4.622;2022-08-01T11:54:37;9.80;;;2.45;;
38499;SDS011;24269;51.894;4.622;2022-08-01T11:57:05;9.05;;;1.98;;
38499;SDS011;24269;51.894;4.622;2022-08-01T12:02:16;9.95;;;2.20;;
38499;SDS011;24269;51.894;4.622;2022-08-01T12:05:16;11.00;;;2.63;;
38499;SDS011;24269;51.894;4.622;2022-08-01T12:07:37;11.48;;;2.30;;
38499;SDS011;24269;51.894;4.622;2022-08-01T12:10:05;11.25;;;2.85;;
38499;SDS011;24269;51.894;4.622;2022-08-01T12:12:33;9.98;;;2.38;;
38499;SDS011;24269;51.894;4.622;2022-08-01T12:15:00;9.23;;;2.30;;
38499;SDS011;24269;51.894;4.622;2022-08-01T12:17:38;10.25;;;2.03;;
38499;SDS011;24269;51.894;4.622;2022-08-01T12:20:20;13.02;;;2.47;;
38499;SDS011;24269;51.894;4.622;2022-08-01T12:22:47;8.77;;;1.90;;
38499;SDS011;24269;51.894;4.622;2022-08-01T12:25:19;10.77;;;1.90;;
38499;SDS011;24269;51.894;4.622;2022-08-01T12:27:45;12.07;;;2.38;;
38499;SDS011;24269;51.894;4.622;2022-08-01T12:30:13;9.63;;;2.08;;
38499;SDS011;24269;51.894;4.622;2022-08-01T12:32:41;8.45;;;1.67;;
38499;SDS011;24269;51.894;4.622;2022-08-01T12:35:16;9.90;;;2.10;;
38499;SDS011;24269;51.894;4.622;2022-08-01T12:37:47;6.45;;;1.58;;
38499;SDS011;24269;51.894;4.622;2022-08-01T12:40:15;8.35;;;2.03;;
38499;SDS011;24269;51.894;4.622;2022-08-01T12:42:43;7.38;;;1.50;;
38499;SDS011;24269;51.894;4.622;2022-08-01T12:45:25;10.20;;;1.85;;
38499;SDS011;24269;51.894;4.622;2022-08-01T12:47:54;5.70;;;1.35;;
38499;SDS011;24269;51.894;4.622;2022-08-01T12:50:22;6.45;;;1.63;;
38499;SDS011;24269;51.894;4.622;2022-08-01T12:52:50;8.73;;;2.30;;
38499;SDS011;24269;51.894;4.622;2022-08-01T12:55:17;8.52;;;1.70;;
38499;SDS011;24269;51.894;4.622;2022-08-01T12:57:45;9.90;;;1.70;;
38499;SDS011;24269;51.894;4.622;2022-08-01T13:00:23;7.68;;;1.60;;
38499;SDS011;24269;51.894;4.622;2022-08-01T13:05:49;6.82;;;1.48;;
38499;SDS011;24269;51.894;4.622;2022-08-01T13:08:17;10.52;;;2.17;;
38499;SDS011;24269;51.894;4.622;2022-08-01T13:10:44;10.00;;;2.00;;
38499;SDS011;24269;51.894;4.622;2022-08-01T13:13:11;10.95;;;1.67;;
38499;SDS011;24269;51.894;4.622;2022-08-01T13:15:39;7.72;;;1.70;;
38499;SDS011;24269;51.894;4.622;2022-08-01T13:20:49;9.10;;;2.00;;
38499;SDS011;24269;51.894;4.622;2022-08-01T13:23:16;10.85;;;1.90;;
38499;SDS011;24269;51.894;4.622;2022-08-01T13:25:55;10.73;;;2.10;;
38499;SDS011;24269;51.894;4.622;2022-08-01T13:28:25;7.13;;;1.50;;
38499;SDS011;24269;51.894;4.622;2022-08-01T13:33:21;8.05;;;1.60;;
38499;SDS011;24269;51.894;4.622;2022-08-01T13:35:49;9.30;;;2.42;;
38499;SDS011;24269;51.894;4.622;2022-08-01T13:38:15;7.18;;;1.70;;
38499;SDS011;24269;51.894;4.622;2022-08-01T13:40:41;6.80;;;1.48;;
38499;SDS011;24269;51.894;4.622;2022-08-01T13:43:07;7.20;;;1.70;;
38499;SDS011;24269;51.894;4.622;2022-08-01T13:45:33;7.05;;;1.70;;
38499;SDS011;24269;51.894;4.622;2022-08-01T13:47:59;7.00;;;1.65;;
38499;SDS011;24269;51.894;4.622;2022-08-01T13:50:25;10.07;;;2.05;;
38499;SDS011;24269;51.894;4.622;2022-08-01T13:52:51;7.45;;;1.65;;
38499;SDS011;24269;51.894;4.622;2022-08-01T13:55:16;6.82;;;1.40;;
38499;SDS011;24269;51.894;4.622;2022-08-01T13:57:42;6.88;;;1.60;;
38499;SDS011;24269;51.894;4.622;2022-08-01T14:00:09;6.20;;;1.50;;
38499;SDS011;24269;51.894;4.622;2022-08-01T14:02:36;9.13;;;1.95;;
38499;SDS011;24269;51.894;4.622;2022-08-01T14:05:02;9.20;;;2.10;;
38499;SDS011;24269;51.894;4.622;2022-08-01T14:07:27;6.13;;;1.55;;
38499;SDS011;24269;51.894;4.622;2022-08-01T14:09:53;10.40;;;1.75;;
38499;SDS011;24269;51.894;4.622;2022-08-01T14:12:19;6.80;;;1.73;;
38499;SDS011;24269;51.894;4.622;2022-08-01T14:14:44;7.85;;;1.55;;
38499;SDS011;24269;51.894;4.622;2022-08-01T14:17:10;7.88;;;1.60;;
38499;SDS011;24269;51.894;4.622;2022-08-01T14:19:36;6.63;;;1.50;;
38499;SDS011;24269;51.894;4.622;2022-08-01T14:22:01;5.75;;;1.50;;
38499;SDS011;24269;51.894;4.622;2022-08-01T14:24:27;7.10;;;1.40;;
38499;SDS011;24269;51.894;4.622;2022-08-01T14:26:53;10.75;;;1.80;;
38499;SDS011;24269;51.894;4.622;2022-08-01T14:29:19;5.30;;;1.50;;
38499;SDS011;24269;51.894;4.622;2022-08-01T14:31:44;7.40;;;1.67;;
38499;SDS011;24269;51.894;4.622;2022-08-01T14:34:10;6.53;;;1.50;;
38499;SDS011;24269;51.894;4.622;2022-08-01T14:36:37;6.80;;;1.38;;
38499;SDS011;24269;51.894;4.622;2022-08-01T14:39:03;6.65;;;1.73;;
38499;SDS011;24269;51.894;4.622;2022-08-01T14:41:29;6.90;;;1.48;;
38499;SDS011;24269;51.894;4.622;2022-08-01T14:43:54;8.13;;;1.48;;
38499;SDS011;24269;51.894;4.622;2022-08-01T14:46:20;7.53;;;1.67;;
38499;SDS011;24269;51.894;4.622;2022-08-01T14:48:45;6.70;;;1.33;;
38499;SDS011;24269;51.894;4.622;2022-08-01T14:51:11;8.10;;;1.58;;
38499;SDS011;24269;51.894;4.622;2022-08-01T14:53:37;6.43;;;1.63;;
38499;SDS011;24269;51.894;4.622;2022-08-01T14:56:03;10.00;;;1.60;;
38499;SDS011;24269;51.894;4.622;2022-08-01T14:58:29;6.05;;;1.73;;
38499;SDS011;24269;51.894;4.622;2022-08-01T15:00:54;4.78;;;1.38;;
38499;SDS011;24269;51.894;4.622;2022-08-01T15:03:20;7.85;;;1.60;;
38499;SDS011;24269;51.894;4.622;2022-08-01T15:05:47;6.13;;;1.25;;
38499;SDS011;24269;51.894;4.622;2022-08-01T15:08:12;8.05;;;1.50;;
38499;SDS011;24269;51.894;4.622;2022-08-01T15:10:41;5.35;;;1.17;;
38499;SDS011;24269;51.894;4.622;2022-08-01T15:13:07;6.95;;;1.45;;
38499;SDS011;24269;51.894;4.622;2022-08-01T15:15:32;7.47;;;1.55;;
38499;SDS011;24269;51.894;4.622;2022-08-01T15:17:58;5.68;;;1.40;;
38499;SDS011;24269;51.894;4.622;2022-08-01T15:20:24;7.18;;;1.60;;
38499;SDS011;24269;51.894;4.622;2022-08-01T15:22:52;8.43;;;2.03;;
38499;SDS011;24269;51.894;4.622;2022-08-01T15:25:21;4.55;;;1.20;;
38499;SDS011;24269;51.894;4.622;2022-08-01T15:27:47;6.28;;;1.55;;
38499;SDS011;24269;51.894;4.622;2022-08-01T15:30:12;6.10;;;1.33;;
38499;SDS011;24269;51.894;4.622;2022-08-01T15:32:38;7.25;;;1.63;;
38499;SDS011;24269;51.894;4.622;2022-08-01T15:35:04;6.15;;;1.50;;
38499;SDS011;24269;51.894;4.622;2022-08-01T15:37:31;6.00;;;1.42;;
38499;SDS011;24269;51.894;4.622;2022-08-01T15:39:56;5.97;;;1.40;;
38499;SDS011;24269;51.894;4.622;2022-08-01T15:42:22;7.07;;;1.35;;
38499;SDS011;24269;51.894;4.622;2022-08-01T15:44:48;7.00;;;1.40;;
38499;SDS011;24269;51.894;4.622;2022-08-01T15:47:13;7.18;;;1.30;;
38499;SDS011;24269;51.894;4.622;2022-08-01T15:49:39;6.57;;;1.42;;